sensor_id;sensor_type;location;lat;lon;timestamp;P1;durP1;ratioP1;P2;durP2;ratioP2
6955;SDS011;50345;51.136;16.886;2023-07-30T00:00:52;6.93;;;5.57;;
6955;SDS011;50345;51.136;16.886;2023-07-30T00:03:18;11.20;;;3.50;;
6955;SDS011;50345;51.136;16.886;2023-07-30T00:05:54;8.15;;;5.05;;
6955;SDS011;50345;51.136;16.886;2023-07-30T00:08:20;3.40;;;2.70;;
6955;SDS011;50345;51.136;16.886;2023-07-30T00:10:47;4.10;;;2.72;;
6955;SDS011;50345;51.136;16.886;2023-07-30T00:13:13;5.68;;;2.92;;
6955;SDS011;50345;51.136;16.886;2023-07-30T00:15:39;3.00;;;2.72;;
6955;SDS011;50345;51.136;16.886;2023-07-30T00:18:05;2.60;;;2.40;;
6955;SDS011;50345;51.136;16.886;2023-07-30T00:20:31;3.58;;;2.55;;
6955;SDS011;50345;51.136;16.886;2023-07-30T00:22:57;4.17;;;3.20;;
6955;SDS011;50345;51.136;16.886;2023-07-30T00:25:23;18.17;;;7.93;;
6955;SDS011;50345;51.136;16.886;2023-07-30T00:27:49;18.80;;;12.73;;
6955;SDS011;50345;51.136;16.886;2023-07-30T00:30:15;18.03;;;12.80;;
6955;SDS011;50345;51.136;16.886;2023-07-30T00:32:41;11.57;;;8.55;;
6955;SDS011;50345;51.136;16.886;2023-07-30T00:35:08;8.18;;;7.57;;
6955;SDS011;50345;51.136;16.886;2023-07-30T00:37:35;12.30;;;9.63;;
6955;SDS011;50345;51.136;16.886;2023-07-30T00:40:01;8.55;;;7.60;;
6955;SDS011;50345;51.136;16.886;2023-07-30T00:42:28;9.23;;;8.35;;
6955;SDS011;50345;51.136;16.886;2023-07-30T00:44:54;8.90;;;6.78;;
6955;SDS011;50345;51.136;16.886;2023-07-30T00:47:20;8.67;;;6.47;;
6955;SDS011;50345;51.136;16.886;2023-07-30T00:49:46;11.02;;;9.15;;
6955;SDS011;50345;51.136;16.886;2023-07-30T00:52:13;10.07;;;9.25;;
6955;SDS011;50345;51.136;16.886;2023-07-30T00:54:39;9.55;;;8.65;;
6955;SDS011;50345;51.136;16.886;2023-07-30T00:57:05;9.85;;;9.05;;
6955;SDS011;50345;51.136;16.886;2023-07-30T00:59:32;9.35;;;8.50;;
6955;SDS011;50345;51.136;16.886;2023-07-30T01:01:58;5.80;;;5.25;;
6955;SDS011;50345;51.136;16.886;2023-07-30T01:04:25;8.48;;;6.50;;
6955;SDS011;50345;51.136;16.886;2023-07-30T01:06:51;7.53;;;5.07;;
6955;SDS011;50345;51.136;16.886;2023-07-30T01:09:20;5.68;;;5.13;;
6955;SDS011;50345;51.136;16.886;2023-07-30T01:11:46;5.40;;;4.90;;
6955;SDS011;50345;51.136;16.886;2023-07-30T01:14:13;5.50;;;3.65;;
6955;SDS011;50345;51.136;16.886;2023-07-30T01:16:40;4.53;;;3.78;;
6955;SDS011;50345;51.136;16.886;2023-07-30T01:19:06;4.28;;;2.60;;
6955;SDS011;50345;51.136;16.886;2023-07-30T01:21:35;2.65;;;2.40;;
6955;SDS011;50345;51.136;16.886;2023-07-30T01:24:02;3.85;;;2.72;;
6955;SDS011;50345;51.136;16.886;2023-07-30T01:26:37;5.30;;;2.45;;
6955;SDS011;50345;51.136;16.886;2023-07-30T01:29:03;3.25;;;2.45;;
6955;SDS011;50345;51.136;16.886;2023-07-30T01:31:32;6.72;;;2.88;;
6955;SDS011;50345;51.136;16.886;2023-07-30T01:33:59;3.75;;;3.05;;
6955;SDS011;50345;51.136;16.886;2023-07-30T01:36:27;4.30;;;2.63;;
6955;SDS011;50345;51.136;16.886;2023-07-30T01:38:54;4.72;;;2.50;;
6955;SDS011;50345;51.136;16.886;2023-07-30T01:41:21;2.95;;;2.33;;
6955;SDS011;50345;51.136;16.886;2023-07-30T01:43:49;4.32;;;2.22;;
6955;SDS011;50345;51.136;16.886;2023-07-30T01:46:15;11.70;;;2.80;;
6955;SDS011;50345;51.136;16.886;2023-07-30T01:48:41;2.97;;;2.40;;
6955;SDS011;50345;51.136;16.886;2023-07-30T01:51:07;5.57;;;2.38;;
6955;SDS011;50345;51.136;16.886;2023-07-30T01:53:33;7.45;;;4.00;;
6955;SDS011;50345;51.136;16.886;2023-07-30T01:55:59;3.88;;;2.50;;
6955;SDS011;50345;51.136;16.886;2023-07-30T01:58:25;6.43;;;3.55;;
6955;SDS011;50345;51.136;16.886;2023-07-30T02:00:51;6.03;;;3.73;;
6955;SDS011;50345;51.136;16.886;2023-07-30T02:03:17;9.68;;;4.53;;
6955;SDS011;50345;51.136;16.886;2023-07-30T02:05:43;7.75;;;6.50;;
6955;SDS011;50345;51.136;16.886;2023-07-30T02:08:10;10.52;;;9.00;;
6955;SDS011;50345;51.136;16.886;2023-07-30T02:10:38;10.02;;;8.93;;
6955;SDS011;50345;51.136;16.886;2023-07-30T02:13:04;15.32;;;13.77;;
6955;SDS011;50345;51.136;16.886;2023-07-30T02:15:30;11.55;;;10.35;;
6955;SDS011;50345;51.136;16.886;2023-07-30T02:17:56;10.38;;;9.38;;
6955;SDS011;50345;51.136;16.886;2023-07-30T02:20:22;15.27;;;12.43;;
6955;SDS011;50345;51.136;16.886;2023-07-30T02:22:48;15.00;;;11.88;;
6955;SDS011;50345;51.136;16.886;2023-07-30T02:25:14;12.82;;;11.55;;
6955;SDS011;50345;51.136;16.886;2023-07-30T02:27:40;15.80;;;14.70;;
6955;SDS011;50345;51.136;16.886;2023-07-30T02:30:06;9.23;;;8.38;;
6955;SDS011;50345;51.136;16.886;2023-07-30T02:32:32;6.25;;;5.57;;
6955;SDS011;50345;51.136;16.886;2023-07-30T02:34:58;9.85;;;4.80;;
6955;SDS011;50345;51.136;16.886;2023-07-30T02:37:24;5.47;;;3.40;;
6955;SDS011;50345;51.136;16.886;2023-07-30T02:39:50;6.68;;;3.25;;
6955;SDS011;50345;51.136;16.886;2023-07-30T02:42:16;5.17;;;4.17;;
6955;SDS011;50345;51.136;16.886;2023-07-30T02:44:42;4.40;;;3.97;;
6955;SDS011;50345;51.136;16.886;2023-07-30T02:47:08;5.18;;;3.47;;
6955;SDS011;50345;51.136;16.886;2023-07-30T02:49:34;6.73;;;4.10;;
6955;SDS011;50345;51.136;16.886;2023-07-30T02:52:00;6.87;;;6.17;;
6955;SDS011;50345;51.136;16.886;2023-07-30T02:54:27;7.35;;;5.70;;
6955;SDS011;50345;51.136;16.886;2023-07-30T02:56:53;7.40;;;5.45;;
6955;SDS011;50345;51.136;16.886;2023-07-30T02:59:19;7.78;;;5.75;;
6955;SDS011;50345;51.136;16.886;2023-07-30T03:01:45;7.10;;;4.80;;
6955;SDS011;50345;51.136;16.886;2023-07-30T03:04:11;5.50;;;4.57;;
6955;SDS011;50345;51.136;16.886;2023-07-30T03:06:37;6.40;;;4.20;;
6955;SDS011;50345;51.136;16.886;2023-07-30T03:09:03;5.68;;;3.45;;
6955;SDS011;50345;51.136;16.886;2023-07-30T03:11:29;5.32;;;2.85;;
6955;SDS011;50345;51.136;16.886;2023-07-30T03:13:55;4.90;;;3.10;;
6955;SDS011;50345;51.136;16.886;2023-07-30T03:16:21;6.50;;;3.63;;
6955;SDS011;50345;51.136;16.886;2023-07-30T03:18:47;4.45;;;3.08;;
6955;SDS011;50345;51.136;16.886;2023-07-30T03:21:13;5.82;;;3.63;;
6955;SDS011;50345;51.136;16.886;2023-07-30T03:23:39;10.73;;;3.88;;
6955;SDS011;50345;51.136;16.886;2023-07-30T03:26:07;6.68;;;3.42;;
6955;SDS011;50345;51.136;16.886;2023-07-30T03:28:33;6.60;;;3.55;;
6955;SDS011;50345;51.136;16.886;2023-07-30T03:30:59;5.60;;;3.80;;
6955;SDS011;50345;51.136;16.886;2023-07-30T03:33:25;4.47;;;3.72;;
6955;SDS011;50345;51.136;16.886;2023-07-30T03:35:51;8.02;;;4.20;;
6955;SDS011;50345;51.136;16.886;2023-07-30T03:38:17;6.55;;;3.70;;
6955;SDS011;50345;51.136;16.886;2023-07-30T03:40:43;6.73;;;4.37;;
6955;SDS011;50345;51.136;16.886;2023-07-30T03:43:09;5.93;;;4.90;;
6955;SDS011;50345;51.136;16.886;2023-07-30T03:45:36;6.65;;;4.70;;
6955;SDS011;50345;51.136;16.886;2023-07-30T03:48:02;8.57;;;5.65;;
6955;SDS011;50345;51.136;16.886;2023-07-30T03:50:28;6.75;;;4.95;;
6955;SDS011;50345;51.136;16.886;2023-07-30T03:52:54;6.73;;;5.40;;
6955;SDS011;50345;51.136;16.886;2023-07-30T03:55:20;6.25;;;4.80;;
6955;SDS011;50345;51.136;16.886;2023-07-30T03:57:46;7.50;;;4.28;;
6955;SDS011;50345;51.136;16.886;2023-07-30T04:00:12;4.72;;;2.60;;
6955;SDS011;50345;51.136;16.886;2023-07-30T04:02:38;6.53;;;3.00;;
6955;SDS011;50345;51.136;16.886;2023-07-30T04:05:04;3.00;;;2.45;;
6955;SDS011;50345;51.136;16.886;2023-07-30T04:07:30;7.95;;;3.25;;
6955;SDS011;50345;51.136;16.886;2023-07-30T04:09:56;6.07;;;3.05;;
6955;SDS011;50345;51.136;16.886;2023-07-30T04:12:23;9.75;;;3.92;;
6955;SDS011;50345;51.136;16.886;2023-07-30T04:14:48;7.22;;;3.45;;
6955;SDS011;50345;51.136;16.886;2023-07-30T04:17:15;7.80;;;3.35;;
6955;SDS011;50345;51.136;16.886;2023-07-30T04:19:41;8.30;;;3.20;;
6955;SDS011;50345;51.136;16.886;2023-07-30T04:22:07;4.70;;;2.90;;
6955;SDS011;50345;51.136;16.886;2023-07-30T04:24:33;5.22;;;3.20;;
6955;SDS011;50345;51.136;16.886;2023-07-30T04:27:00;5.80;;;2.77;;
6955;SDS011;50345;51.136;16.886;2023-07-30T04:29:26;6.90;;;3.28;;
6955;SDS011;50345;51.136;16.886;2023-07-30T04:31:52;6.18;;;2.70;;
6955;SDS011;50345;51.136;16.886;2023-07-30T04:34:18;6.05;;;3.72;;
6955;SDS011;50345;51.136;16.886;2023-07-30T04:36:44;5.00;;;4.10;;
6955;SDS011;50345;51.136;16.886;2023-07-30T04:39:10;6.90;;;3.27;;
6955;SDS011;50345;51.136;16.886;2023-07-30T04:41:37;6.15;;;3.85;;
6955;SDS011;50345;51.136;16.886;2023-07-30T04:44:03;10.27;;;3.22;;
6955;SDS011;50345;51.136;16.886;2023-07-30T04:46:29;3.60;;;3.30;;
6955;SDS011;50345;51.136;16.886;2023-07-30T04:48:56;13.05;;;3.75;;
6955;SDS011;50345;51.136;16.886;2023-07-30T04:51:21;9.30;;;2.83;;
6955;SDS011;50345;51.136;16.886;2023-07-30T04:53:47;3.90;;;3.07;;
6955;SDS011;50345;51.136;16.886;2023-07-30T04:56:16;6.53;;;2.97;;
6955;SDS011;50345;51.136;16.886;2023-07-30T04:58:43;9.98;;;3.58;;
6955;SDS011;50345;51.136;16.886;2023-07-30T05:01:09;12.00;;;4.13;;
6955;SDS011;50345;51.136;16.886;2023-07-30T05:03:34;5.83;;;3.83;;
6955;SDS011;50345;51.136;16.886;2023-07-30T05:06:00;5.23;;;3.50;;
6955;SDS011;50345;51.136;16.886;2023-07-30T05:08:26;7.72;;;3.75;;
6955;SDS011;50345;51.136;16.886;2023-07-30T05:10:53;4.32;;;3.92;;
6955;SDS011;50345;51.136;16.886;2023-07-30T05:13:19;5.80;;;5.20;;
6955;SDS011;50345;51.136;16.886;2023-07-30T05:15:45;11.13;;;6.57;;
6955;SDS011;50345;51.136;16.886;2023-07-30T05:18:11;7.57;;;5.80;;
6955;SDS011;50345;51.136;16.886;2023-07-30T05:20:38;10.18;;;6.50;;
6955;SDS011;50345;51.136;16.886;2023-07-30T05:23:04;5.70;;;4.15;;
6955;SDS011;50345;51.136;16.886;2023-07-30T05:25:31;5.00;;;3.93;;
6955;SDS011;50345;51.136;16.886;2023-07-30T05:27:58;5.03;;;4.50;;
6955;SDS011;50345;51.136;16.886;2023-07-30T05:30:24;4.37;;;3.90;;
6955;SDS011;50345;51.136;16.886;2023-07-30T05:32:50;6.50;;;3.93;;
6955;SDS011;50345;51.136;16.886;2023-07-30T05:35:16;7.97;;;5.67;;
6955;SDS011;50345;51.136;16.886;2023-07-30T05:37:43;11.10;;;5.30;;
6955;SDS011;50345;51.136;16.886;2023-07-30T05:40:09;4.43;;;4.00;;
6955;SDS011;50345;51.136;16.886;2023-07-30T05:42:35;13.63;;;5.00;;
6955;SDS011;50345;51.136;16.886;2023-07-30T05:45:01;7.60;;;4.70;;
6955;SDS011;50345;51.136;16.886;2023-07-30T05:47:28;8.03;;;3.50;;
6955;SDS011;50345;51.136;16.886;2023-07-30T05:49:54;8.40;;;4.90;;
6955;SDS011;50345;51.136;16.886;2023-07-30T05:52:20;7.77;;;4.17;;
6955;SDS011;50345;51.136;16.886;2023-07-30T05:54:46;6.70;;;4.90;;
6955;SDS011;50345;51.136;16.886;2023-07-30T05:57:12;12.90;;;4.90;;
6955;SDS011;50345;51.136;16.886;2023-07-30T05:59:38;8.50;;;4.67;;
6955;SDS011;50345;51.136;16.886;2023-07-30T06:02:04;8.10;;;3.90;;
6955;SDS011;50345;51.136;16.886;2023-07-30T06:04:30;6.60;;;2.77;;
6955;SDS011;50345;51.136;16.886;2023-07-30T06:06:57;9.93;;;3.07;;
6955;SDS011;50345;51.136;16.886;2023-07-30T06:09:23;5.77;;;3.10;;
6955;SDS011;50345;51.136;16.886;2023-07-30T06:11:49;4.63;;;3.40;;
6955;SDS011;50345;51.136;16.886;2023-07-30T06:14:15;7.17;;;3.43;;
6955;SDS011;50345;51.136;16.886;2023-07-30T06:16:41;5.87;;;4.20;;
6955;SDS011;50345;51.136;16.886;2023-07-30T06:19:08;4.73;;;3.60;;
6955;SDS011;50345;51.136;16.886;2023-07-30T06:21:34;4.63;;;3.43;;
6955;SDS011;50345;51.136;16.886;2023-07-30T06:24:00;9.80;;;4.13;;
6955;SDS011;50345;51.136;16.886;2023-07-30T06:26:26;6.10;;;3.07;;
6955;SDS011;50345;51.136;16.886;2023-07-30T06:28:52;7.23;;;4.57;;
6955;SDS011;50345;51.136;16.886;2023-07-30T06:31:18;6.73;;;3.20;;
6955;SDS011;50345;51.136;16.886;2023-07-30T06:33:44;8.20;;;3.10;;
6955;SDS011;50345;51.136;16.886;2023-07-30T06:36:10;8.70;;;2.70;;
6955;SDS011;50345;51.136;16.886;2023-07-30T06:38:36;3.87;;;3.40;;
6955;SDS011;50345;51.136;16.886;2023-07-30T06:41:02;5.03;;;3.10;;
6955;SDS011;50345;51.136;16.886;2023-07-30T06:43:28;3.20;;;3.00;;
6955;SDS011;50345;51.136;16.886;2023-07-30T06:45:54;8.07;;;3.60;;
6955;SDS011;50345;51.136;16.886;2023-07-30T06:48:20;6.93;;;4.03;;
6955;SDS011;50345;51.136;16.886;2023-07-30T06:50:46;10.77;;;3.10;;
6955;SDS011;50345;51.136;16.886;2023-07-30T06:53:12;5.67;;;2.60;;
6955;SDS011;50345;51.136;16.886;2023-07-30T06:55:39;5.27;;;2.97;;
6955;SDS011;50345;51.136;16.886;2023-07-30T06:58:04;4.10;;;3.40;;
6955;SDS011;50345;51.136;16.886;2023-07-30T07:00:31;5.63;;;3.60;;
6955;SDS011;50345;51.136;16.886;2023-07-30T07:02:57;2.67;;;2.47;;
6955;SDS011;50345;51.136;16.886;2023-07-30T07:05:23;6.53;;;3.53;;
6955;SDS011;50345;51.136;16.886;2023-07-30T07:07:49;3.70;;;3.40;;
6955;SDS011;50345;51.136;16.886;2023-07-30T07:10:15;8.37;;;3.10;;
6955;SDS011;50345;51.136;16.886;2023-07-30T07:12:41;5.80;;;3.33;;
6955;SDS011;50345;51.136;16.886;2023-07-30T07:15:07;4.30;;;2.97;;
6955;SDS011;50345;51.136;16.886;2023-07-30T07:17:33;5.23;;;3.20;;
6955;SDS011;50345;51.136;16.886;2023-07-30T07:20:00;5.70;;;3.90;;
6955;SDS011;50345;51.136;16.886;2023-07-30T07:22:26;5.27;;;3.70;;
6955;SDS011;50345;51.136;16.886;2023-07-30T07:24:52;5.40;;;3.30;;
6955;SDS011;50345;51.136;16.886;2023-07-30T07:27:18;4.53;;;3.60;;
6955;SDS011;50345;51.136;16.886;2023-07-30T07:29:45;4.00;;;2.67;;
6955;SDS011;50345;51.136;16.886;2023-07-30T07:32:11;5.37;;;3.30;;
6955;SDS011;50345;51.136;16.886;2023-07-30T07:34:37;3.57;;;3.37;;
6955;SDS011;50345;51.136;16.886;2023-07-30T07:37:03;8.47;;;4.53;;
6955;SDS011;50345;51.136;16.886;2023-07-30T07:39:29;5.97;;;4.10;;
6955;SDS011;50345;51.136;16.886;2023-07-30T07:41:56;4.10;;;3.80;;
6955;SDS011;50345;51.136;16.886;2023-07-30T07:44:22;5.00;;;3.97;;
6955;SDS011;50345;51.136;16.886;2023-07-30T07:46:48;4.53;;;3.33;;
6955;SDS011;50345;51.136;16.886;2023-07-30T07:49:14;6.23;;;3.17;;
6955;SDS011;50345;51.136;16.886;2023-07-30T07:51:40;4.30;;;3.40;;
6955;SDS011;50345;51.136;16.886;2023-07-30T07:54:06;4.27;;;3.93;;
6955;SDS011;50345;51.136;16.886;2023-07-30T07:56:32;6.70;;;3.40;;
6955;SDS011;50345;51.136;16.886;2023-07-30T07:58:58;3.17;;;2.97;;
6955;SDS011;50345;51.136;16.886;2023-07-30T08:01:24;4.47;;;3.67;;
6955;SDS011;50345;51.136;16.886;2023-07-30T08:03:50;3.43;;;3.13;;
6955;SDS011;50345;51.136;16.886;2023-07-30T08:06:16;3.20;;;2.73;;
6955;SDS011;50345;51.136;16.886;2023-07-30T08:08:42;5.17;;;2.97;;
6955;SDS011;50345;51.136;16.886;2023-07-30T08:11:08;3.60;;;3.00;;
6955;SDS011;50345;51.136;16.886;2023-07-30T08:13:35;5.07;;;3.00;;
6955;SDS011;50345;51.136;16.886;2023-07-30T08:16:01;5.33;;;3.43;;
6955;SDS011;50345;51.136;16.886;2023-07-30T08:18:27;2.90;;;2.70;;
6955;SDS011;50345;51.136;16.886;2023-07-30T08:20:54;3.13;;;2.83;;
6955;SDS011;50345;51.136;16.886;2023-07-30T08:23:20;3.33;;;3.03;;
6955;SDS011;50345;51.136;16.886;2023-07-30T08:25:46;5.03;;;3.17;;
6955;SDS011;50345;51.136;16.886;2023-07-30T08:28:12;3.00;;;2.60;;
6955;SDS011;50345;51.136;16.886;2023-07-30T08:30:38;3.50;;;2.50;;
6955;SDS011;50345;51.136;16.886;2023-07-30T08:33:04;3.30;;;2.67;;
6955;SDS011;50345;51.136;16.886;2023-07-30T08:35:30;2.70;;;2.50;;
6955;SDS011;50345;51.136;16.886;2023-07-30T08:37:56;4.70;;;3.20;;
6955;SDS011;50345;51.136;16.886;2023-07-30T08:40:22;6.83;;;5.67;;
6955;SDS011;50345;51.136;16.886;2023-07-30T08:42:49;4.50;;;3.10;;
6955;SDS011;50345;51.136;16.886;2023-07-30T08:45:16;3.00;;;2.80;;
6955;SDS011;50345;51.136;16.886;2023-07-30T08:47:42;2.30;;;2.20;;
6955;SDS011;50345;51.136;16.886;2023-07-30T08:50:08;2.40;;;1.80;;
6955;SDS011;50345;51.136;16.886;2023-07-30T08:52:35;5.87;;;2.77;;
6955;SDS011;50345;51.136;16.886;2023-07-30T08:55:02;2.87;;;2.63;;
6955;SDS011;50345;51.136;16.886;2023-07-30T08:57:29;3.13;;;2.30;;
6955;SDS011;50345;51.136;16.886;2023-07-30T09:00:10;2.93;;;2.23;;
6955;SDS011;50345;51.136;16.886;2023-07-30T09:02:37;1.93;;;1.83;;
6955;SDS011;50345;51.136;16.886;2023-07-30T09:05:04;2.60;;;2.40;;
6955;SDS011;50345;51.136;16.886;2023-07-30T09:07:30;2.43;;;2.20;;
6955;SDS011;50345;51.136;16.886;2023-07-30T09:09:56;3.10;;;2.67;;
6955;SDS011;50345;51.136;16.886;2023-07-30T09:12:26;3.97;;;2.00;;
6955;SDS011;50345;51.136;16.886;2023-07-30T09:14:54;3.20;;;2.03;;
6955;SDS011;50345;51.136;16.886;2023-07-30T09:17:20;2.10;;;2.00;;
6955;SDS011;50345;51.136;16.886;2023-07-30T09:19:46;4.30;;;2.73;;
6955;SDS011;50345;51.136;16.886;2023-07-30T09:22:12;2.17;;;2.07;;
6955;SDS011;50345;51.136;16.886;2023-07-30T09:24:43;2.70;;;2.50;;
6955;SDS011;50345;51.136;16.886;2023-07-30T09:27:09;3.03;;;2.70;;
6955;SDS011;50345;51.136;16.886;2023-07-30T09:29:35;2.77;;;2.57;;
6955;SDS011;50345;51.136;16.886;2023-07-30T09:32:01;2.67;;;2.47;;
6955;SDS011;50345;51.136;16.886;2023-07-30T09:34:27;3.00;;;2.40;;
6955;SDS011;50345;51.136;16.886;2023-07-30T09:36:55;2.30;;;2.10;;
6955;SDS011;50345;51.136;16.886;2023-07-30T09:39:22;2.90;;;2.60;;
6955;SDS011;50345;51.136;16.886;2023-07-30T09:41:52;2.10;;;1.90;;
6955;SDS011;50345;51.136;16.886;2023-07-30T09:44:19;2.87;;;2.33;;
6955;SDS011;50345;51.136;16.886;2023-07-30T09:46:46;2.17;;;1.97;;
6955;SDS011;50345;51.136;16.886;2023-07-30T09:49:13;3.00;;;2.10;;
6955;SDS011;50345;51.136;16.886;2023-07-30T09:51:39;4.17;;;2.23;;
6955;SDS011;50345;51.136;16.886;2023-07-30T09:54:12;2.80;;;1.90;;
6955;SDS011;50345;51.136;16.886;2023-07-30T09:56:39;2.20;;;2.00;;
6955;SDS011;50345;51.136;16.886;2023-07-30T09:59:06;3.60;;;2.60;;
6955;SDS011;50345;51.136;16.886;2023-07-30T10:01:36;2.50;;;2.30;;
6955;SDS011;50345;51.136;16.886;2023-07-30T10:04:07;2.00;;;1.90;;
6955;SDS011;50345;51.136;16.886;2023-07-30T10:06:33;2.30;;;2.20;;
6955;SDS011;50345;51.136;16.886;2023-07-30T10:09:02;2.33;;;2.13;;
6955;SDS011;50345;51.136;16.886;2023-07-30T10:11:28;2.47;;;2.27;;
6955;SDS011;50345;51.136;16.886;2023-07-30T10:13:54;5.30;;;2.40;;
6955;SDS011;50345;51.136;16.886;2023-07-30T10:16:30;2.17;;;2.07;;
6955;SDS011;50345;51.136;16.886;2023-07-30T10:18:57;2.33;;;2.13;;
6955;SDS011;50345;51.136;16.886;2023-07-30T10:21:23;2.60;;;2.40;;
6955;SDS011;50345;51.136;16.886;2023-07-30T10:23:57;2.53;;;2.37;;
6955;SDS011;50345;51.136;16.886;2023-07-30T10:26:30;2.20;;;1.80;;
6955;SDS011;50345;51.136;16.886;2023-07-30T10:29:13;2.43;;;2.20;;
6955;SDS011;50345;51.136;16.886;2023-07-30T10:31:39;2.00;;;1.90;;
6955;SDS011;50345;51.136;16.886;2023-07-30T10:34:09;2.43;;;2.10;;
6955;SDS011;50345;51.136;16.886;2023-07-30T10:36:49;2.20;;;2.10;;
6955;SDS011;50345;51.136;16.886;2023-07-30T10:41:59;5.53;;;2.20;;
6955;SDS011;50345;51.136;16.886;2023-07-30T10:44:26;3.27;;;2.13;;
6955;SDS011;50345;51.136;16.886;2023-07-30T10:46:57;2.40;;;2.20;;
6955;SDS011;50345;51.136;16.886;2023-07-30T10:49:23;2.00;;;1.90;;
6955;SDS011;50345;51.136;16.886;2023-07-30T10:51:53;2.53;;;1.80;;
6955;SDS011;50345;51.136;16.886;2023-07-30T10:54:19;2.97;;;2.47;;
6955;SDS011;50345;51.136;16.886;2023-07-30T10:56:45;3.13;;;2.33;;
6955;SDS011;50345;51.136;16.886;2023-07-30T10:59:12;2.00;;;1.90;;
6955;SDS011;50345;51.136;16.886;2023-07-30T11:04:11;2.57;;;2.37;;
6955;SDS011;50345;51.136;16.886;2023-07-30T11:06:37;3.53;;;2.20;;
6955;SDS011;50345;51.136;16.886;2023-07-30T11:09:04;3.47;;;2.10;;
6955;SDS011;50345;51.136;16.886;2023-07-30T11:11:30;2.60;;;1.90;;
6955;SDS011;50345;51.136;16.886;2023-07-30T11:13:56;2.37;;;2.17;;
6955;SDS011;50345;51.136;16.886;2023-07-30T11:16:23;1.60;;;1.50;;
6955;SDS011;50345;51.136;16.886;2023-07-30T11:18:50;2.23;;;2.03;;
6955;SDS011;50345;51.136;16.886;2023-07-30T11:21:16;2.27;;;1.53;;
6955;SDS011;50345;51.136;16.886;2023-07-30T11:23:43;2.80;;;1.80;;
6955;SDS011;50345;51.136;16.886;2023-07-30T11:26:16;2.20;;;2.00;;
6955;SDS011;50345;51.136;16.886;2023-07-30T11:28:43;2.70;;;2.50;;
6955;SDS011;50345;51.136;16.886;2023-07-30T11:31:10;2.00;;;1.90;;
6955;SDS011;50345;51.136;16.886;2023-07-30T11:33:38;2.30;;;2.10;;
6955;SDS011;50345;51.136;16.886;2023-07-30T11:36:04;3.43;;;2.43;;
6955;SDS011;50345;51.136;16.886;2023-07-30T11:38:31;3.83;;;1.90;;
6955;SDS011;50345;51.136;16.886;2023-07-30T11:40:58;4.20;;;2.87;;
6955;SDS011;50345;51.136;16.886;2023-07-30T11:43:24;2.07;;;1.97;;
6955;SDS011;50345;51.136;16.886;2023-07-30T11:46:12;2.37;;;2.27;;
6955;SDS011;50345;51.136;16.886;2023-07-30T11:48:37;2.50;;;2.03;;
6955;SDS011;50345;51.136;16.886;2023-07-30T11:51:03;5.23;;;4.83;;
6955;SDS011;50345;51.136;16.886;2023-07-30T11:58:44;2.83;;;2.33;;
6955;SDS011;50345;51.136;16.886;2023-07-30T12:01:10;2.90;;;2.20;;
6955;SDS011;50345;51.136;16.886;2023-07-30T12:03:37;2.53;;;2.33;;
6955;SDS011;50345;51.136;16.886;2023-07-30T12:06:06;2.87;;;2.67;;
6955;SDS011;50345;51.136;16.886;2023-07-30T12:08:33;2.60;;;2.47;;
6955;SDS011;50345;51.136;16.886;2023-07-30T12:11:04;2.53;;;2.43;;
6955;SDS011;50345;51.136;16.886;2023-07-30T12:13:30;1.83;;;1.70;;
6955;SDS011;50345;51.136;16.886;2023-07-30T12:15:57;1.80;;;1.70;;
6955;SDS011;50345;51.136;16.886;2023-07-30T12:18:23;1.80;;;1.70;;
6955;SDS011;50345;51.136;16.886;2023-07-30T12:20:50;2.47;;;2.10;;
6955;SDS011;50345;51.136;16.886;2023-07-30T12:23:16;2.07;;;1.97;;
6955;SDS011;50345;51.136;16.886;2023-07-30T12:25:43;1.63;;;1.53;;
6955;SDS011;50345;51.136;16.886;2023-07-30T12:28:09;1.93;;;1.83;;
6955;SDS011;50345;51.136;16.886;2023-07-30T12:30:35;3.57;;;2.10;;
6955;SDS011;50345;51.136;16.886;2023-07-30T12:33:02;2.20;;;2.10;;
6955;SDS011;50345;51.136;16.886;2023-07-30T12:35:28;2.87;;;2.60;;
6955;SDS011;50345;51.136;16.886;2023-07-30T12:37:54;3.00;;;2.23;;
6955;SDS011;50345;51.136;16.886;2023-07-30T12:40:20;1.83;;;1.73;;
6955;SDS011;50345;51.136;16.886;2023-07-30T12:42:46;2.13;;;2.03;;
6955;SDS011;50345;51.136;16.886;2023-07-30T12:45:12;1.77;;;1.67;;
6955;SDS011;50345;51.136;16.886;2023-07-30T12:47:39;2.20;;;2.07;;
6955;SDS011;50345;51.136;16.886;2023-07-30T12:50:05;3.53;;;2.40;;
6955;SDS011;50345;51.136;16.886;2023-07-30T12:52:32;2.13;;;1.93;;
6955;SDS011;50345;51.136;16.886;2023-07-30T12:54:58;2.70;;;2.50;;
6955;SDS011;50345;51.136;16.886;2023-07-30T12:57:24;2.70;;;2.50;;
6955;SDS011;50345;51.136;16.886;2023-07-30T12:59:50;2.20;;;2.10;;
6955;SDS011;50345;51.136;16.886;2023-07-30T13:02:16;3.60;;;2.73;;
6955;SDS011;50345;51.136;16.886;2023-07-30T13:04:42;4.10;;;2.10;;
6955;SDS011;50345;51.136;16.886;2023-07-30T13:07:08;3.00;;;2.70;;
6955;SDS011;50345;51.136;16.886;2023-07-30T13:09:34;2.13;;;2.00;;
6955;SDS011;50345;51.136;16.886;2023-07-30T13:12:00;2.00;;;1.90;;
6955;SDS011;50345;51.136;16.886;2023-07-30T13:14:26;2.03;;;1.90;;
6955;SDS011;50345;51.136;16.886;2023-07-30T13:16:52;2.33;;;2.20;;
6955;SDS011;50345;51.136;16.886;2023-07-30T13:19:18;2.03;;;1.90;;
6955;SDS011;50345;51.136;16.886;2023-07-30T13:21:44;2.13;;;2.03;;
6955;SDS011;50345;51.136;16.886;2023-07-30T13:24:10;2.50;;;2.40;;
6955;SDS011;50345;51.136;16.886;2023-07-30T13:26:36;2.13;;;2.03;;
6955;SDS011;50345;51.136;16.886;2023-07-30T13:29:03;2.43;;;1.90;;
6955;SDS011;50345;51.136;16.886;2023-07-30T13:31:29;3.50;;;2.00;;
6955;SDS011;50345;51.136;16.886;2023-07-30T13:33:55;2.23;;;2.13;;
6955;SDS011;50345;51.136;16.886;2023-07-30T13:36:21;2.67;;;2.07;;
6955;SDS011;50345;51.136;16.886;2023-07-30T13:38:48;2.10;;;2.00;;
6955;SDS011;50345;51.136;16.886;2023-07-30T13:41:14;1.97;;;1.87;;
6955;SDS011;50345;51.136;16.886;2023-07-30T13:43:40;2.07;;;1.97;;
6955;SDS011;50345;51.136;16.886;2023-07-30T13:46:06;1.93;;;1.73;;
6955;SDS011;50345;51.136;16.886;2023-07-30T13:48:32;4.63;;;1.80;;
6955;SDS011;50345;51.136;16.886;2023-07-30T13:50:58;1.70;;;1.60;;
6955;SDS011;50345;51.136;16.886;2023-07-30T13:53:24;2.17;;;2.07;;
6955;SDS011;50345;51.136;16.886;2023-07-30T13:55:50;1.93;;;1.67;;
6955;SDS011;50345;51.136;16.886;2023-07-30T13:58:16;2.70;;;2.50;;
6955;SDS011;50345;51.136;16.886;2023-07-30T14:00:42;2.20;;;2.00;;
6955;SDS011;50345;51.136;16.886;2023-07-30T14:03:08;2.57;;;2.27;;
6955;SDS011;50345;51.136;16.886;2023-07-30T14:05:34;2.30;;;2.20;;
6955;SDS011;50345;51.136;16.886;2023-07-30T14:08:00;2.80;;;2.33;;
6955;SDS011;50345;51.136;16.886;2023-07-30T14:10:26;2.40;;;2.20;;
6955;SDS011;50345;51.136;16.886;2023-07-30T14:12:52;2.03;;;1.90;;
6955;SDS011;50345;51.136;16.886;2023-07-30T14:15:18;2.10;;;2.00;;
6955;SDS011;50345;51.136;16.886;2023-07-30T14:17:44;2.00;;;1.90;;
6955;SDS011;50345;51.136;16.886;2023-07-30T14:20:10;2.20;;;2.10;;
6955;SDS011;50345;51.136;16.886;2023-07-30T14:22:36;1.57;;;1.47;;
6955;SDS011;50345;51.136;16.886;2023-07-30T14:25:03;1.77;;;1.67;;
6955;SDS011;50345;51.136;16.886;2023-07-30T14:27:29;2.70;;;1.90;;
6955;SDS011;50345;51.136;16.886;2023-07-30T14:29:55;2.73;;;2.43;;
6955;SDS011;50345;51.136;16.886;2023-07-30T14:32:22;1.90;;;1.80;;
6955;SDS011;50345;51.136;16.886;2023-07-30T14:34:48;1.80;;;1.70;;
6955;SDS011;50345;51.136;16.886;2023-07-30T14:37:14;5.03;;;2.33;;
6955;SDS011;50345;51.136;16.886;2023-07-30T14:39:41;2.20;;;2.10;;
6955;SDS011;50345;51.136;16.886;2023-07-30T14:42:07;5.53;;;2.00;;
6955;SDS011;50345;51.136;16.886;2023-07-30T14:44:34;4.03;;;1.47;;
6955;SDS011;50345;51.136;16.886;2023-07-30T14:47:00;1.73;;;1.60;;
6955;SDS011;50345;51.136;16.886;2023-07-30T14:49:28;2.80;;;1.93;;
6955;SDS011;50345;51.136;16.886;2023-07-30T14:51:54;2.40;;;1.67;;